createdAt,value
2023-05-06T00:00:46.310Z,39.10
2023-05-06T00:03:15.867Z,39.30
2023-05-06T00:05:46.103Z,39.90
2023-05-06T00:08:16.944Z,40.60
2023-05-06T00:10:45.983Z,40.30
2023-05-06T00:13:16.730Z,40.70
2023-05-06T00:15:45.191Z,40.40
2023-05-06T00:18:15.322Z,40.60
2023-05-06T00:20:44.618Z,40.50
2023-05-06T00:23:15.508Z,40.80
2023-05-06T00:25:43.756Z,40.80
2023-05-06T00:28:11.993Z,41.20
2023-05-06T00:30:42.345Z,41.70
2023-05-06T00:33:11.031Z,40.80
2023-05-06T00:35:40.206Z,40.70
2023-05-06T00:38:10.536Z,40.80
2023-05-06T00:40:39.602Z,40.90
2023-05-06T00:43:09.097Z,40.70
2023-05-06T00:45:38.176Z,41.00
2023-05-06T00:48:10.211Z,40.90
2023-05-06T00:50:41.020Z,40.70
2023-05-06T00:53:10.992Z,40.80
2023-05-06T00:55:44.314Z,40.80
2023-05-06T00:58:13.430Z,40.90
2023-05-06T01:00:43.560Z,41.40
2023-05-06T01:03:16.390Z,42.00
2023-05-06T01:05:52.986Z,41.60
2023-05-06T01:08:30.975Z,41.20
2023-05-06T01:11:06.598Z,41.30
2023-05-06T01:13:44.099Z,41.10
2023-05-06T01:16:16.726Z,40.90
2023-05-06T01:18:46.682Z,40.70
2023-05-06T01:21:15.200Z,40.40
2023-05-06T01:23:55.353Z,40.30
2023-05-06T01:26:27.472Z,40.60
2023-05-06T01:28:58.897Z,40.60
2023-05-06T01:31:33.449Z,40.90
2023-05-06T01:34:11.137Z,40.70
2023-05-06T01:36:46.586Z,40.80
2023-05-06T01:39:19.764Z,40.60
2023-05-06T01:41:52.443Z,40.50
2023-05-06T01:44:26.641Z,40.30
2023-05-06T01:46:56.156Z,40.60
2023-05-06T01:49:26.368Z,40.40
2023-05-06T01:51:55.230Z,40.80
2023-05-06T01:54:27.476Z,40.40
2023-05-06T01:57:15.442Z,41.10
2023-05-06T02:02:58.795Z,41.60
2023-05-06T02:05:32.396Z,41.90
2023-05-06T02:08:12.445Z,42.00
2023-05-06T02:10:55.022Z,42.50
2023-05-06T02:13:27.481Z,42.50
2023-05-06T02:16:04.646Z,42.10
2023-05-06T02:18:33.700Z,41.40
2023-05-06T02:21:12.252Z,41.40
2023-05-06T02:23:47.393Z,40.90
2023-05-06T02:26:22.941Z,40.90
2023-05-06T02:29:00.986Z,41.20
2023-05-06T02:31:29.615Z,40.90
2023-05-06T02:33:58.102Z,41.20
2023-05-06T02:36:30.136Z,40.80
2023-05-06T02:39:05.582Z,41.10
2023-05-06T02:41:41.991Z,41.20
2023-05-06T02:44:17.605Z,41.30
2023-05-06T02:47:04.849Z,41.40
2023-05-06T02:49:36.684Z,41.80
2023-05-06T02:52:06.180Z,41.80
2023-05-06T02:54:38.740Z,41.60
2023-05-06T02:57:12.308Z,41.90
2023-05-06T02:59:46.629Z,42.30
2023-05-06T03:02:26.260Z,41.70
2023-05-06T03:05:05.951Z,41.40
2023-05-06T03:07:44.418Z,42.00
2023-05-06T03:10:19.038Z,42.10
2023-05-06T03:12:52.512Z,41.60
2023-05-06T03:15:26.650Z,41.80
2023-05-06T03:17:55.366Z,41.90
2023-05-06T03:20:23.830Z,41.90
2023-05-06T03:22:52.212Z,41.40
2023-05-06T03:25:20.645Z,41.90
2023-05-06T03:27:50.768Z,41.90
2023-05-06T03:30:19.266Z,41.90
2023-05-06T03:32:48.708Z,41.90
2023-05-06T03:35:20.358Z,42.00
2023-05-06T03:37:49.357Z,42.20
2023-05-06T03:40:17.741Z,42.10
2023-05-06T03:42:47.461Z,42.30
2023-05-06T03:45:17.103Z,42.10
2023-05-06T03:47:46.625Z,42.00
2023-05-06T03:50:15.092Z,42.10
2023-05-06T03:52:43.693Z,42.00
2023-05-06T03:55:12.777Z,42.30
2023-05-06T03:57:43.859Z,42.00
2023-05-06T04:00:13.756Z,42.10
2023-05-06T04:02:43.666Z,42.10
2023-05-06T04:05:12.534Z,42.20
2023-05-06T04:07:47.848Z,42.10
2023-05-06T04:10:19.165Z,42.20
2023-05-06T04:12:47.593Z,42.30
2023-05-06T04:15:16.104Z,42.20
2023-05-06T04:17:46.094Z,41.90
2023-05-06T04:20:16.173Z,42.40
2023-05-06T04:22:44.744Z,42.70
2023-05-06T04:25:14.978Z,42.70
2023-05-06T04:27:43.442Z,42.40
2023-05-06T04:30:13.143Z,42.50
2023-05-06T04:32:41.973Z,42.50
2023-05-06T04:35:12.176Z,42.50
2023-05-06T04:37:42.866Z,43.10
2023-05-06T04:40:14.345Z,43.60
2023-05-06T04:42:43.428Z,44.30
2023-05-06T04:45:12.597Z,44.20
2023-05-06T04:47:41.434Z,44.70
2023-05-06T04:50:12.360Z,44.70
2023-05-06T04:52:41.032Z,44.30
2023-05-06T04:55:11.511Z,44.10
2023-05-06T04:57:40.661Z,43.80
2023-05-06T05:00:10.845Z,44.10
2023-05-06T05:02:41.402Z,43.60
2023-05-06T05:05:12.424Z,43.40
2023-05-06T05:07:41.854Z,43.60
2023-05-06T05:10:11.376Z,43.40
2023-05-06T05:12:39.683Z,43.20
2023-05-06T05:15:08.999Z,43.00
2023-05-06T05:17:37.584Z,43.20
2023-05-06T05:20:06.984Z,42.90
2023-05-06T05:22:36.808Z,42.90
2023-05-06T05:25:07.962Z,42.60
2023-05-06T05:27:36.776Z,43.00
2023-05-06T05:30:05.936Z,43.10
2023-05-06T05:32:34.302Z,42.50
2023-05-06T05:35:03.414Z,42.50
2023-05-06T05:37:32.735Z,42.90
2023-05-06T05:40:02.625Z,42.40
2023-05-06T05:42:33.678Z,42.40
2023-05-06T05:45:03.634Z,42.50
2023-05-06T05:47:31.867Z,42.30
2023-05-06T05:50:00.097Z,42.90
2023-05-06T05:52:28.567Z,43.00
2023-05-06T05:54:56.722Z,43.60
2023-05-06T05:57:26.509Z,44.10
2023-05-06T05:59:54.771Z,43.60
2023-05-06T06:02:23.166Z,43.30
2023-05-06T06:04:54.358Z,44.00
2023-05-06T06:07:22.841Z,43.90
2023-05-06T06:09:51.953Z,44.50
2023-05-06T06:12:20.270Z,44.30
2023-05-06T06:14:52.695Z,44.40
2023-05-06T06:17:20.826Z,44.20
2023-05-06T06:19:50.834Z,44.40
2023-05-06T06:22:19.535Z,44.30
2023-05-06T06:24:48.243Z,44.50
2023-05-06T06:27:16.651Z,44.40
2023-05-06T06:29:44.880Z,44.10
2023-05-06T06:32:15.496Z,44.00
2023-05-06T06:34:44.438Z,43.80
2023-05-06T06:37:18.523Z,44.30
2023-05-06T06:39:47.195Z,43.90
2023-05-06T06:42:15.818Z,44.10
2023-05-06T06:44:46.709Z,43.90
2023-05-06T06:47:16.660Z,43.90
2023-05-06T06:49:44.870Z,44.10
2023-05-06T06:52:13.203Z,43.90
2023-05-06T06:54:42.077Z,43.70
2023-05-06T06:57:19.891Z,43.50
2023-05-06T06:59:50.394Z,43.80
2023-05-06T07:02:20.475Z,43.70
2023-05-06T07:04:52.699Z,43.60
2023-05-06T07:07:28.109Z,43.60
2023-05-06T07:10:00.072Z,43.50
2023-05-06T07:12:30.765Z,43.30
2023-05-06T07:15:01.295Z,43.00
2023-05-06T07:17:33.926Z,42.90
2023-05-06T07:20:08.306Z,43.30
2023-05-06T07:22:37.032Z,43.10
2023-05-06T07:25:14.152Z,43.10
2023-05-06T07:27:43.179Z,43.40
2023-05-06T07:30:12.303Z,43.00
2023-05-06T07:32:42.117Z,42.90
2023-05-06T07:35:12.921Z,42.60
2023-05-06T07:37:42.527Z,42.60
2023-05-06T07:40:11.301Z,42.40
2023-05-06T07:42:42.168Z,42.70
2023-05-06T07:45:12.232Z,42.30
2023-05-06T07:47:45.516Z,42.10
2023-05-06T07:50:13.945Z,41.90
2023-05-06T07:53:04.825Z,41.60
2023-05-06T07:55:34.998Z,41.70
2023-05-06T07:58:03.608Z,41.80
2023-05-06T08:00:31.754Z,41.40
2023-05-06T08:03:07.976Z,41.50
2023-05-06T08:05:38.697Z,41.50
2023-05-06T08:08:07.064Z,41.30
2023-05-06T08:10:35.750Z,41.20
2023-05-06T08:13:04.309Z,41.10
2023-05-06T08:15:32.810Z,41.00
2023-05-06T08:18:13.727Z,40.80
2023-05-06T08:20:49.948Z,40.50
2023-05-06T08:23:18.243Z,40.40
2023-05-06T08:25:46.853Z,39.80
2023-05-06T08:28:15.304Z,39.90
2023-05-06T08:30:45.361Z,38.60
2023-05-06T08:33:15.611Z,38.20
2023-05-06T08:35:45.005Z,37.90
2023-05-06T08:38:14.736Z,37.50
2023-05-06T08:40:46.130Z,37.20
2023-05-06T08:43:15.729Z,37.00
2023-05-06T08:45:44.014Z,37.00
2023-05-06T08:48:34.029Z,36.80
2023-05-06T08:51:04.577Z,36.30
2023-05-06T08:53:35.121Z,36.00
2023-05-06T08:56:08.583Z,36.30
2023-05-06T08:58:40.296Z,36.10
2023-05-06T09:01:09.112Z,35.60
2023-05-06T09:03:39.414Z,35.80
2023-05-06T09:06:07.997Z,35.60
2023-05-06T09:08:37.185Z,36.00
2023-05-06T09:11:21.909Z,35.50
2023-05-06T09:13:51.098Z,35.80
2023-05-06T09:16:29.252Z,36.20
2023-05-06T09:19:00.211Z,36.00
2023-05-06T09:21:34.728Z,35.40
2023-05-06T09:24:05.088Z,35.40
2023-05-06T09:26:35.175Z,35.20
2023-05-06T09:29:04.738Z,34.20
2023-05-06T09:31:33.506Z,33.90
2023-05-06T09:34:03.926Z,33.70
2023-05-06T09:36:32.260Z,34.00
2023-05-06T09:39:00.771Z,33.90
2023-05-06T09:41:29.706Z,33.60
2023-05-06T09:43:59.309Z,33.00
2023-05-06T09:46:28.357Z,32.60
2023-05-06T09:48:58.182Z,32.60
2023-05-06T09:51:28.694Z,32.90
2023-05-06T09:54:13.070Z,32.60
2023-05-06T09:56:43.660Z,33.00
2023-05-06T09:59:13.073Z,32.60
2023-05-06T10:01:42.889Z,32.20
2023-05-06T10:04:32.182Z,32.00
2023-05-06T10:07:04.032Z,29.70
2023-05-06T10:09:52.215Z,29.00
2023-05-06T10:12:21.288Z,29.20
2023-05-06T10:14:49.658Z,29.60
2023-05-06T10:17:19.751Z,29.70
2023-05-06T10:19:51.501Z,29.60
2023-05-06T10:22:32.099Z,29.80
2023-05-06T10:25:05.647Z,29.60
2023-05-06T10:27:40.842Z,29.30
2023-05-06T10:30:11.687Z,29.20
2023-05-06T10:32:44.182Z,28.80
2023-05-06T10:35:21.176Z,29.00
2023-05-06T10:37:52.807Z,29.00
2023-05-06T10:40:21.803Z,29.60
2023-05-06T10:42:51.244Z,29.80
2023-05-06T10:45:19.849Z,29.80
2023-05-06T10:48:10.110Z,29.70
2023-05-06T10:50:38.745Z,29.80
2023-05-06T10:53:08.197Z,28.60
2023-05-06T10:55:37.767Z,27.60
2023-05-06T10:58:15.123Z,27.50
2023-05-06T11:00:55.627Z,27.10
2023-05-06T11:03:25.319Z,27.50
2023-05-06T11:05:54.807Z,28.50
2023-05-06T11:08:26.317Z,28.50
2023-05-06T11:10:55.732Z,27.90
2023-05-06T11:13:27.664Z,27.30
2023-05-06T11:15:57.629Z,27.00
2023-05-06T11:18:50.667Z,26.80
2023-05-06T11:21:41.583Z,27.20
2023-05-06T11:24:13.619Z,27.20
2023-05-06T11:26:43.054Z,26.90
2023-05-06T11:29:16.988Z,26.70
2023-05-06T11:31:48.000Z,26.30
2023-05-06T11:34:24.796Z,25.80
2023-05-06T11:37:02.139Z,25.90
2023-05-06T11:39:40.002Z,25.50
2023-05-06T11:42:09.635Z,25.60
2023-05-06T11:44:40.145Z,25.60
2023-05-06T11:47:10.072Z,26.20
2023-05-06T11:49:40.073Z,25.80
2023-05-06T11:52:10.277Z,25.80
2023-05-06T11:54:42.919Z,25.60
2023-05-06T11:57:16.481Z,25.10
2023-05-06T11:59:45.132Z,24.90
2023-05-06T12:02:22.484Z,25.20
2023-05-06T12:04:53.911Z,25.30
2023-05-06T12:07:22.732Z,25.20
2023-05-06T12:09:53.288Z,25.40
2023-05-06T12:12:23.980Z,25.20
2023-05-06T12:14:54.351Z,25.00
2023-05-06T12:17:23.444Z,25.20
2023-05-06T12:19:52.208Z,23.70
2023-05-06T12:22:21.920Z,23.70
2023-05-06T12:24:56.196Z,23.90
2023-05-06T12:27:39.865Z,23.70
2023-05-06T12:30:11.423Z,23.80
2023-05-06T12:32:57.987Z,24.40
2023-05-06T12:35:30.245Z,24.10
2023-05-06T12:38:08.057Z,23.70
2023-05-06T12:40:42.245Z,23.90
2023-05-06T12:43:13.072Z,24.10
2023-05-06T12:46:05.744Z,23.60
2023-05-06T12:48:43.129Z,23.80
2023-05-06T12:51:20.218Z,23.80
2023-05-06T12:53:55.460Z,23.50
2023-05-06T12:56:27.568Z,23.90
2023-05-06T12:59:00.975Z,23.00
2023-05-06T13:01:36.183Z,23.50
2023-05-06T13:04:04.752Z,23.40
2023-05-06T13:06:35.534Z,23.80
2023-05-06T13:09:04.815Z,24.00
2023-05-06T13:11:34.461Z,23.30
2023-05-06T13:14:02.754Z,22.40
2023-05-06T13:16:32.062Z,22.30
2023-05-06T13:19:00.901Z,23.00
2023-05-06T13:21:29.402Z,23.10
2023-05-06T13:23:57.627Z,23.10
2023-05-06T13:26:26.702Z,23.80
2023-05-06T13:28:58.799Z,23.90
2023-05-06T13:31:28.644Z,23.90
2023-05-06T13:33:57.624Z,24.10
2023-05-06T13:36:27.429Z,23.80
2023-05-06T13:38:55.779Z,24.10
2023-05-06T13:41:25.483Z,24.30
2023-05-06T13:43:55.805Z,23.80
2023-05-06T13:46:27.357Z,24.50
2023-05-06T13:48:55.773Z,24.10
2023-05-06T13:51:25.459Z,24.20
2023-05-06T13:53:53.851Z,24.10
2023-05-06T13:56:22.433Z,23.50
2023-05-06T13:58:53.330Z,23.90
2023-05-06T14:01:21.967Z,24.40
2023-05-06T14:03:51.724Z,24.20
2023-05-06T14:06:20.954Z,24.60
2023-05-06T14:08:50.881Z,24.20
2023-05-06T14:11:20.198Z,23.50
2023-05-06T14:13:49.805Z,24.10
2023-05-06T14:16:18.283Z,24.20
2023-05-06T14:18:46.794Z,23.30
2023-05-06T14:21:18.390Z,23.80
2023-05-06T14:23:46.629Z,23.70
2023-05-06T14:26:16.305Z,24.00
2023-05-06T14:28:44.915Z,23.10
2023-05-06T14:31:15.685Z,23.10
2023-05-06T14:33:49.072Z,23.10
2023-05-06T14:36:22.937Z,23.30
2023-05-06T14:38:51.322Z,22.90
2023-05-06T14:41:21.377Z,23.30
2023-05-06T14:43:55.014Z,23.10
2023-05-06T14:46:34.176Z,23.60
2023-05-06T14:49:03.394Z,24.00
2023-05-06T14:51:34.368Z,23.80
2023-05-06T14:54:03.978Z,24.00
2023-05-06T14:56:32.473Z,23.70
2023-05-06T14:59:03.732Z,24.30
2023-05-06T15:01:33.853Z,24.50
2023-05-06T15:04:02.442Z,25.00
2023-05-06T15:06:45.235Z,25.00
2023-05-06T15:09:15.339Z,24.70
2023-05-06T15:11:44.189Z,24.80
2023-05-06T15:14:15.012Z,24.50
2023-05-06T15:16:43.679Z,24.80
2023-05-06T15:19:14.463Z,24.50
2023-05-06T15:21:49.194Z,25.20
2023-05-06T15:24:23.707Z,24.70
2023-05-06T15:26:57.570Z,25.10
2023-05-06T15:29:26.137Z,25.20
2023-05-06T15:31:56.914Z,25.20
2023-05-06T15:34:25.319Z,25.00
2023-05-06T15:36:55.386Z,26.00
2023-05-06T15:39:24.455Z,25.70
2023-05-06T15:42:12.266Z,25.70
2023-05-06T15:44:43.060Z,25.80
2023-05-06T15:47:11.231Z,26.20
2023-05-06T15:52:18.883Z,26.10
2023-05-06T15:55:01.875Z,25.90
2023-05-06T15:57:43.047Z,26.30
2023-05-06T16:00:18.566Z,26.50
2023-05-06T16:02:47.290Z,26.20
2023-05-06T16:05:16.431Z,26.30
2023-05-06T16:07:52.372Z,26.70
2023-05-06T16:10:22.875Z,27.10
2023-05-06T16:13:06.859Z,26.50
2023-05-06T16:15:35.470Z,27.10
2023-05-06T16:18:07.515Z,27.10
2023-05-06T16:20:40.203Z,27.40
2023-05-06T16:23:10.230Z,27.50
2023-05-06T16:25:38.952Z,28.20
2023-05-06T16:28:08.765Z,28.20
2023-05-06T16:30:37.798Z,28.60
2023-05-06T16:33:07.776Z,29.10
2023-05-06T16:35:36.531Z,29.30
2023-05-06T16:38:12.068Z,29.00
2023-05-06T16:40:51.287Z,29.00
2023-05-06T16:43:20.393Z,29.10
2023-05-06T16:45:48.777Z,29.00
2023-05-06T16:48:17.176Z,29.00
2023-05-06T16:51:01.089Z,28.90
2023-05-06T16:53:37.023Z,29.20
2023-05-06T16:56:07.739Z,29.60
2023-05-06T16:58:36.070Z,29.60
2023-05-06T17:01:04.614Z,29.70
2023-05-06T17:03:37.792Z,29.90
2023-05-06T17:06:06.552Z,30.00
2023-05-06T17:08:36.857Z,29.90
2023-05-06T17:11:08.568Z,30.20
2023-05-06T17:13:37.227Z,30.40
2023-05-06T17:16:06.053Z,30.40
2023-05-06T17:18:34.301Z,30.40
2023-05-06T17:21:03.003Z,30.60
2023-05-06T17:23:34.418Z,30.80
2023-05-06T17:26:05.033Z,31.10
2023-05-06T17:28:39.577Z,31.20
2023-05-06T17:31:08.836Z,31.30
2023-05-06T17:33:37.389Z,31.50
2023-05-06T17:36:06.346Z,32.00
2023-05-06T17:38:34.991Z,31.50
2023-05-06T17:41:03.371Z,31.70
2023-05-06T17:43:31.591Z,31.90
2023-05-06T17:46:02.598Z,32.10
2023-05-06T17:48:30.973Z,32.30
2023-05-06T17:51:02.090Z,32.10
2023-05-06T17:53:32.314Z,32.30
2023-05-06T17:56:01.769Z,32.50
2023-05-06T17:58:30.352Z,32.50
2023-05-06T18:01:02.892Z,32.70
2023-05-06T18:03:31.511Z,32.80
2023-05-06T18:05:59.923Z,32.70
2023-05-06T18:08:28.209Z,32.80
2023-05-06T18:10:56.589Z,32.90
2023-05-06T18:13:25.572Z,33.30
2023-05-06T18:15:53.923Z,33.00
2023-05-06T18:18:23.817Z,33.10
2023-05-06T18:20:52.979Z,33.30
2023-05-06T18:23:21.642Z,33.50
2023-05-06T18:25:52.347Z,34.90
2023-05-06T18:28:21.654Z,35.00
2023-05-06T18:30:49.946Z,34.80
2023-05-06T18:33:20.178Z,34.90
2023-05-06T18:35:51.278Z,35.00
2023-05-06T18:38:20.245Z,35.10
2023-05-06T18:40:48.856Z,35.10
2023-05-06T18:43:36.669Z,35.80
2023-05-06T18:46:05.454Z,35.70
2023-05-06T18:48:33.948Z,36.40
2023-05-06T18:51:13.829Z,36.60
2023-05-06T18:53:53.655Z,36.70
2023-05-06T18:56:22.557Z,36.60
2023-05-06T18:58:51.401Z,36.50
2023-05-06T19:01:19.687Z,36.70
2023-05-06T19:04:07.733Z,37.00
2023-05-06T19:06:38.938Z,36.60
2023-05-06T19:09:07.463Z,36.80
2023-05-06T19:11:35.826Z,37.30
2023-05-06T19:14:04.653Z,36.80
2023-05-06T19:16:32.938Z,36.80
2023-05-06T19:19:02.943Z,37.70
2023-05-06T19:21:43.904Z,37.50
2023-05-06T19:24:12.176Z,37.90
2023-05-06T19:26:40.547Z,37.70
2023-05-06T19:29:08.675Z,38.10
2023-05-06T19:31:37.858Z,37.80
2023-05-06T19:34:06.321Z,38.00
2023-05-06T19:36:35.535Z,38.10
2023-05-06T19:39:05.257Z,38.30
2023-05-06T19:41:35.029Z,38.40
2023-05-06T19:44:03.285Z,38.10
2023-05-06T19:46:33.596Z,38.30
2023-05-06T19:49:01.877Z,38.60
2023-05-06T19:51:31.244Z,38.30
2023-05-06T19:53:59.729Z,38.60
2023-05-06T19:56:29.843Z,38.70
2023-05-06T19:58:58.141Z,39.00
2023-05-06T20:01:28.553Z,39.20
2023-05-06T20:04:16.484Z,38.80
2023-05-06T20:06:45.052Z,39.50
2023-05-06T20:09:13.563Z,38.80
2023-05-06T20:11:44.349Z,38.80
2023-05-06T20:14:12.574Z,39.10
2023-05-06T20:16:42.054Z,38.80
2023-05-06T20:19:12.240Z,38.90
2023-05-06T20:21:41.728Z,39.30
2023-05-06T20:24:10.352Z,39.30
2023-05-06T20:26:40.940Z,39.00
2023-05-06T20:29:10.544Z,38.90
2023-05-06T20:31:39.341Z,39.50
2023-05-06T20:34:08.231Z,39.30
2023-05-06T20:36:36.864Z,39.50
2023-05-06T20:39:06.098Z,39.40
2023-05-06T20:41:34.850Z,39.50
2023-05-06T20:44:03.431Z,39.30
2023-05-06T20:46:33.327Z,39.40
2023-05-06T20:49:01.643Z,39.70
2023-05-06T20:51:29.963Z,39.50
2023-05-06T20:53:59.700Z,39.80
2023-05-06T20:56:31.838Z,39.90
2023-05-06T20:59:02.545Z,39.80
2023-05-06T21:01:33.160Z,39.80
2023-05-06T21:04:04.694Z,39.60
2023-05-06T21:06:33.335Z,39.50
2023-05-06T21:09:02.954Z,40.00
2023-05-06T21:11:31.345Z,40.00
2023-05-06T21:13:59.587Z,39.80
2023-05-06T21:16:28.164Z,39.70
2023-05-06T21:18:58.470Z,40.10
2023-05-06T21:21:38.770Z,40.20
2023-05-06T21:24:09.354Z,39.80
2023-05-06T21:26:39.419Z,39.80
2023-05-06T21:29:08.141Z,40.10
2023-05-06T21:31:36.892Z,39.70
2023-05-06T21:34:08.035Z,39.70
2023-05-06T21:36:38.936Z,39.70
2023-05-06T21:39:12.751Z,39.80
2023-05-06T21:41:42.227Z,40.20
2023-05-06T21:44:12.203Z,40.10
2023-05-06T21:46:41.204Z,40.10
2023-05-06T21:49:11.820Z,41.20
2023-05-06T21:51:40.429Z,41.40
2023-05-06T21:54:17.054Z,41.60
2023-05-06T21:56:46.551Z,41.50
2023-05-06T21:59:19.573Z,41.00
2023-05-06T22:01:48.621Z,41.40
2023-05-06T22:04:22.839Z,41.50
2023-05-06T22:06:51.423Z,41.00
2023-05-06T22:09:21.386Z,41.10
2023-05-06T22:11:50.227Z,41.00
2023-05-06T22:14:21.931Z,41.10
2023-05-06T22:16:54.240Z,41.10
2023-05-06T22:19:24.050Z,40.70
2023-05-06T22:21:52.290Z,41.20
2023-05-06T22:24:21.183Z,41.40
2023-05-06T22:26:50.063Z,41.20
2023-05-06T22:29:19.082Z,41.30
2023-05-06T22:31:47.568Z,41.40
2023-05-06T22:34:16.690Z,41.30
2023-05-06T22:37:46.791Z,41.30
2023-05-06T22:40:38.284Z,41.70
2023-05-06T22:43:07.191Z,41.80
2023-05-06T22:45:35.567Z,41.90
2023-05-06T22:48:04.363Z,41.70
2023-05-06T22:50:33.235Z,41.50
2023-05-06T22:53:10.401Z,41.90
2023-05-06T22:55:45.379Z,42.00
2023-05-06T22:58:15.200Z,42.10
2023-05-06T23:00:49.915Z,42.00
2023-05-06T23:03:23.306Z,42.10
2023-05-06T23:05:58.800Z,42.00
2023-05-06T23:08:30.827Z,42.20
2023-05-06T23:11:10.973Z,41.80
2023-05-06T23:13:45.697Z,42.10
2023-05-06T23:16:26.463Z,42.10
2023-05-06T23:19:02.925Z,42.10
2023-05-06T23:21:34.947Z,42.10
2023-05-06T23:24:07.472Z,42.00
2023-05-06T23:26:39.452Z,42.00
2023-05-06T23:29:10.501Z,42.60
2023-05-06T23:31:44.958Z,42.30
2023-05-06T23:34:16.051Z,42.30
2023-05-06T23:36:49.383Z,42.80
2023-05-06T23:39:22.699Z,42.50
2023-05-06T23:42:00.738Z,42.30
2023-05-06T23:44:41.978Z,42.50
2023-05-06T23:47:22.203Z,42.50
2023-05-06T23:49:58.820Z,42.30
2023-05-06T23:52:33.687Z,42.60
2023-05-06T23:55:05.152Z,42.60
2023-05-06T23:57:40.125Z,42.50
